National Weather Service United States Department of Commerce

 

Aviation Weather Center TAFs Radar Soundings/Model Data Soaring
NWS Wichita Home Page Hazardous Weather Outlook NWS Graphical Forecasts

 

Wichita (ICT)
Hutchinson (HUT)
Tactical Decision Aid
 
Tactical Decision Aid
 

 
000
FTUS43 KICT 181720
TAFICT
TAF
KICT 181720Z 1818/1918 10006KT P6SM SCT250
FM191500 17012KT P6SM FEW250=
 
000
FTUS43 KICT 181720
TAFHUT
TAF
KHUT 181720Z 1818/1918 11006KT P6SM SCT250
FM191500 17012KT P6SM FEW250=
Salina (SLN) Russell (RSL)
Tactical Decision Aid
Tactical Decision Aid

 
269
FTUS43 KICT 181720
TAFSLN
TAF
KSLN 181720Z 1818/1918 13008KT P6SM SCT250
FM191500 16015G22KT P6SM FEW250=

 
000
FTUS43 KICT 181720
TAFRSL
TAF
KRSL 181720Z 1818/1918 15009KT P6SM SCT250
FM191600 18016G24KT P6SM FEW250=
Chanute (CNU) Great Bend (GBD)
Tactical Decision Aid
Tactical Decision Aid

 
000
FTUS43 KICT 181720
TAFCNU
TAF
KCNU 181720Z 1818/1918 07006KT P6SM FEW250
FM191500 15010KT P6SM FEW250=

 
000
FTUS43 KICT 181720
TAFGBD
TAF
KGBD 181720Z 1818/1918 14009KT P6SM SCT250
FM191600 18016G24KT P6SM FEW250=
 
NWS Wichita Aviation Forecast Discussion

 

 

IMPORTANT: This page is a tool to help pilots better visualize weather and weather-related hazards, and is not a substitute for a weather briefing obtained from a Flight Service Station (1-800-WXBRIEF). The information contained here does not meet the FAA requirements for a pre-flight weather brief. Therefore, it is important that pilots call and obtain a briefing from an FAA Flight Service Specialist.